sensor_id;sensor_type;location;lat;lon;timestamp;pressure;altitude;pressure_sealevel;temperature;humidity
64668;BME280;51077;42.716;23.344;2022-12-18T00:02:20;96122.84;;;9.53;67.26
64668;BME280;51077;42.716;23.344;2022-12-18T00:04:47;96113.09;;;9.52;67.18
64668;BME280;51077;42.716;23.344;2022-12-18T00:07:12;96134.00;;;9.50;67.15
64668;BME280;51077;42.716;23.344;2022-12-18T00:09:38;96124.00;;;9.47;67.09
64668;BME280;51077;42.716;23.344;2022-12-18T00:12:03;96126.97;;;9.43;66.84
64668;BME280;51077;42.716;23.344;2022-12-18T00:14:29;96129.91;;;9.40;66.69
64668;BME280;51077;42.716;23.344;2022-12-18T00:16:54;96137.13;;;9.37;66.74
64668;BME280;51077;42.716;23.344;2022-12-18T00:19:20;96140.06;;;9.34;66.71
64668;BME280;51077;42.716;23.344;2022-12-18T00:21:45;96137.81;;;9.32;66.68
64668;BME280;51077;42.716;23.344;2022-12-18T00:24:11;96137.53;;;9.30;66.64
64668;BME280;51077;42.716;23.344;2022-12-18T00:26:38;96145.50;;;9.28;66.49
64668;BME280;51077;42.716;23.344;2022-12-18T00:29:10;96148.44;;;9.24;66.30
64668;BME280;51077;42.716;23.344;2022-12-18T00:31:37;96152.63;;;9.20;66.04
64668;BME280;51077;42.716;23.344;2022-12-18T00:34:02;96148.09;;;9.17;66.21
64668;BME280;51077;42.716;23.344;2022-12-18T00:36:31;96161.53;;;9.15;66.13
64668;BME280;51077;42.716;23.344;2022-12-18T00:38:58;96161.25;;;9.13;66.21
64668;BME280;51077;42.716;23.344;2022-12-18T00:41:24;96158.25;;;9.11;66.00
64668;BME280;51077;42.716;23.344;2022-12-18T00:44:10;96161.19;;;9.07;66.04
64668;BME280;51077;42.716;23.344;2022-12-18T00:46:37;96155.41;;;9.05;65.94
64668;BME280;51077;42.716;23.344;2022-12-18T00:49:02;96162.88;;;9.04;66.03
64668;BME280;51077;42.716;23.344;2022-12-18T00:51:28;96164.13;;;9.03;65.79
64668;BME280;51077;42.716;23.344;2022-12-18T00:53:53;96170.56;;;9.00;65.88
64668;BME280;51077;42.716;23.344;2022-12-18T00:56:19;96174.53;;;8.99;65.79
64668;BME280;51077;42.716;23.344;2022-12-18T00:58:44;96171.97;;;8.96;65.97
64668;BME280;51077;42.716;23.344;2022-12-18T01:01:10;96174.94;;;8.92;65.94
64668;BME280;51077;42.716;23.344;2022-12-18T01:03:35;96177.66;;;8.92;65.82
64668;BME280;51077;42.716;23.344;2022-12-18T01:06:11;96183.63;;;8.91;65.64
64668;BME280;51077;42.716;23.344;2022-12-18T01:08:37;96180.34;;;8.87;65.71
64668;BME280;51077;42.716;23.344;2022-12-18T01:11:14;96182.31;;;8.86;65.69
64668;BME280;51077;42.716;23.344;2022-12-18T01:13:39;96187.53;;;8.84;65.54
64668;BME280;51077;42.716;23.344;2022-12-18T01:16:05;96189.97;;;8.82;65.66
64668;BME280;51077;42.716;23.344;2022-12-18T01:18:31;96201.69;;;8.82;65.60
64668;BME280;51077;42.716;23.344;2022-12-18T01:20:57;96201.88;;;8.79;65.31
64668;BME280;51077;42.716;23.344;2022-12-18T01:23:22;96198.13;;;8.76;65.52
64668;BME280;51077;42.716;23.344;2022-12-18T01:25:48;96202.09;;;8.75;65.64
64668;BME280;51077;42.716;23.344;2022-12-18T01:28:14;96200.00;;;8.70;65.40
64668;BME280;51077;42.716;23.344;2022-12-18T01:30:39;96202.50;;;8.68;65.01
64668;BME280;51077;42.716;23.344;2022-12-18T01:33:05;96194.75;;;8.67;65.28
64668;BME280;51077;42.716;23.344;2022-12-18T01:35:31;96201.19;;;8.64;65.38
64668;BME280;51077;42.716;23.344;2022-12-18T01:37:56;96205.16;;;8.63;65.20
64668;BME280;51077;42.716;23.344;2022-12-18T01:40:22;96207.59;;;8.61;65.14
64668;BME280;51077;42.716;23.344;2022-12-18T01:42:51;96218.28;;;8.59;65.11
64668;BME280;51077;42.716;23.344;2022-12-18T01:45:26;96214.78;;;8.58;65.43
64668;BME280;51077;42.716;23.344;2022-12-18T01:50:33;96220.16;;;8.52;65.17
64668;BME280;51077;42.716;23.344;2022-12-18T01:53:22;96212.16;;;8.49;65.24
64668;BME280;51077;42.716;23.344;2022-12-18T01:55:53;96217.81;;;8.45;65.01
64668;BME280;51077;42.716;23.344;2022-12-18T01:58:39;96230.75;;;8.45;65.09
64668;BME280;51077;42.716;23.344;2022-12-18T02:01:06;96220.28;;;8.43;65.27
64668;BME280;51077;42.716;23.344;2022-12-18T02:03:32;96218.50;;;8.40;65.04
64668;BME280;51077;42.716;23.344;2022-12-18T02:06:10;96220.47;;;8.40;64.95
64668;BME280;51077;42.716;23.344;2022-12-18T02:19:06;96240.25;;;8.35;65.04
64668;BME280;51077;42.716;23.344;2022-12-18T02:27:17;96250.16;;;8.32;65.00
64668;BME280;51077;42.716;23.344;2022-12-18T02:29:53;96249.13;;;8.29;65.08
64668;BME280;51077;42.716;23.344;2022-12-18T02:32:25;96252.34;;;8.28;65.09
64668;BME280;51077;42.716;23.344;2022-12-18T02:34:55;96257.81;;;8.28;64.58
64668;BME280;51077;42.716;23.344;2022-12-18T02:37:22;96252.78;;;8.26;64.50
64668;BME280;51077;42.716;23.344;2022-12-18T02:39:49;96252.03;;;8.26;64.61
64668;BME280;51077;42.716;23.344;2022-12-18T02:42:17;96253.28;;;8.25;64.61
64668;BME280;51077;42.716;23.344;2022-12-18T02:44:48;96266.94;;;8.25;64.53
64668;BME280;51077;42.716;23.344;2022-12-18T02:47:16;96263.94;;;8.23;64.45
64668;BME280;51077;42.716;23.344;2022-12-18T02:53:00;96271.84;;;8.21;64.16
64668;BME280;51077;42.716;23.344;2022-12-18T03:01:24;96265.63;;;8.20;64.24
64668;BME280;51077;42.716;23.344;2022-12-18T03:03:55;96261.66;;;8.21;64.06
64668;BME280;51077;42.716;23.344;2022-12-18T03:06:32;96260.16;;;8.20;64.01
64668;BME280;51077;42.716;23.344;2022-12-18T03:09:06;96258.66;;;8.19;64.07
64668;BME280;51077;42.716;23.344;2022-12-18T03:11:34;96265.34;;;8.18;63.84
64668;BME280;51077;42.716;23.344;2022-12-18T03:14:22;96261.09;;;8.17;63.84
64668;BME280;51077;42.716;23.344;2022-12-18T03:16:54;96267.03;;;8.16;63.90
64668;BME280;51077;42.716;23.344;2022-12-18T03:19:22;96281.19;;;8.14;64.09
64668;BME280;51077;42.716;23.344;2022-12-18T03:21:54;96281.38;;;8.11;63.89
64668;BME280;51077;42.716;23.344;2022-12-18T03:24:21;96287.03;;;8.07;63.94
64668;BME280;51077;42.716;23.344;2022-12-18T03:26:51;96280.50;;;8.04;63.71
64668;BME280;51077;42.716;23.344;2022-12-18T03:29:42;96285.72;;;8.02;63.85
64668;BME280;51077;42.716;23.344;2022-12-18T03:32:12;96293.34;;;7.98;63.66
64668;BME280;51077;42.716;23.344;2022-12-18T03:34:42;96293.03;;;7.96;63.52
64668;BME280;51077;42.716;23.344;2022-12-18T03:37:09;96296.72;;;7.93;63.56
64668;BME280;51077;42.716;23.344;2022-12-18T03:39:35;96309.63;;;7.93;63.55
64668;BME280;51077;42.716;23.344;2022-12-18T03:42:15;96304.16;;;7.93;63.50
64668;BME280;51077;42.716;23.344;2022-12-18T03:44:50;96305.84;;;7.90;63.37
64668;BME280;51077;42.716;23.344;2022-12-18T03:52:56;96331.97;;;7.91;63.18
64668;BME280;51077;42.716;23.344;2022-12-18T03:55:24;96331.19;;;7.91;63.15
64668;BME280;51077;42.716;23.344;2022-12-18T03:57:52;96331.69;;;7.89;63.10
64668;BME280;51077;42.716;23.344;2022-12-18T04:00:18;96330.94;;;7.89;62.84
64668;BME280;51077;42.716;23.344;2022-12-18T04:02:50;96327.16;;;7.86;62.99
64668;BME280;51077;42.716;23.344;2022-12-18T04:05:17;96339.00;;;7.83;63.03
64668;BME280;51077;42.716;23.344;2022-12-18T04:07:46;96332.03;;;7.82;62.80
64668;BME280;51077;42.716;23.344;2022-12-18T04:10:14;96343.88;;;7.79;63.02
64668;BME280;51077;42.716;23.344;2022-12-18T04:12:40;96347.84;;;7.78;62.77
64668;BME280;51077;42.716;23.344;2022-12-18T04:15:07;96354.53;;;7.77;63.01
64668;BME280;51077;42.716;23.344;2022-12-18T04:17:33;96358.94;;;7.74;62.63
64668;BME280;51077;42.716;23.344;2022-12-18T04:19:58;96356.22;;;7.74;62.68
64668;BME280;51077;42.716;23.344;2022-12-18T04:22:24;96363.66;;;7.74;62.41
64668;BME280;51077;42.716;23.344;2022-12-18T04:24:49;96373.09;;;7.73;62.82
64668;BME280;51077;42.716;23.344;2022-12-18T04:27:14;96373.09;;;7.73;62.51
64668;BME280;51077;42.716;23.344;2022-12-18T04:29:40;96375.06;;;7.72;62.64
64668;BME280;51077;42.716;23.344;2022-12-18T04:32:07;96381.47;;;7.69;62.46
64668;BME280;51077;42.716;23.344;2022-12-18T04:34:32;96379.97;;;7.68;62.30
64668;BME280;51077;42.716;23.344;2022-12-18T04:36:58;96381.63;;;7.66;62.01
64668;BME280;51077;42.716;23.344;2022-12-18T04:39:23;96380.13;;;7.65;62.31
64668;BME280;51077;42.716;23.344;2022-12-18T04:41:49;96386.81;;;7.64;62.32
64668;BME280;51077;42.716;23.344;2022-12-18T04:44:14;96385.31;;;7.63;62.04
64668;BME280;51077;42.716;23.344;2022-12-18T04:46:40;96391.97;;;7.62;61.84
64668;BME280;51077;42.716;23.344;2022-12-18T04:49:05;96395.66;;;7.59;62.32
64668;BME280;51077;42.716;23.344;2022-12-18T04:51:30;96394.59;;;7.56;61.52
64668;BME280;51077;42.716;23.344;2022-12-18T04:53:56;96403.25;;;7.54;61.53
64668;BME280;51077;42.716;23.344;2022-12-18T04:56:22;96409.16;;;7.53;61.81
64668;BME280;51077;42.716;23.344;2022-12-18T04:58:47;96415.09;;;7.51;61.88
64668;BME280;51077;42.716;23.344;2022-12-18T05:01:15;96408.13;;;7.50;61.43
64668;BME280;51077;42.716;23.344;2022-12-18T05:03:41;96417.25;;;7.47;61.33
64668;BME280;51077;42.716;23.344;2022-12-18T05:06:07;96419.41;;;7.43;61.03
64668;BME280;51077;42.716;23.344;2022-12-18T05:08:33;96426.09;;;7.42;61.26
64668;BME280;51077;42.716;23.344;2022-12-18T05:11:04;96430.03;;;7.41;60.96
64668;BME280;51077;42.716;23.344;2022-12-18T05:13:31;96428.53;;;7.40;61.27
64668;BME280;51077;42.716;23.344;2022-12-18T05:15:57;96436.72;;;7.40;61.05
64668;BME280;51077;42.716;23.344;2022-12-18T05:18:23;96434.00;;;7.40;61.04
64668;BME280;51077;42.716;23.344;2022-12-18T05:20:50;96436.72;;;7.40;60.99
64668;BME280;51077;42.716;23.344;2022-12-18T05:23:15;96437.91;;;7.39;61.07
64668;BME280;51077;42.716;23.344;2022-12-18T05:25:41;96447.81;;;7.37;60.89
64668;BME280;51077;42.716;23.344;2022-12-18T05:28:06;96451.47;;;7.34;60.45
64668;BME280;51077;42.716;23.344;2022-12-18T05:30:32;96461.63;;;7.33;60.95
64668;BME280;51077;42.716;23.344;2022-12-18T05:32:57;96462.09;;;7.32;60.84
64668;BME280;51077;42.716;23.344;2022-12-18T05:35:23;96455.56;;;7.29;60.60
64668;BME280;51077;42.716;23.344;2022-12-18T05:37:48;96462.53;;;7.30;60.40
64668;BME280;51077;42.716;23.344;2022-12-18T05:40:13;96461.03;;;7.29;60.81
64668;BME280;51077;42.716;23.344;2022-12-18T05:42:39;96468.16;;;7.26;60.43
64668;BME280;51077;42.716;23.344;2022-12-18T05:45:05;96477.09;;;7.27;60.46
64668;BME280;51077;42.716;23.344;2022-12-18T05:47:31;96474.84;;;7.25;60.13
64668;BME280;51077;42.716;23.344;2022-12-18T05:49:56;96483.03;;;7.25;60.36
64668;BME280;51077;42.716;23.344;2022-12-18T05:52:22;96474.84;;;7.25;60.22
64668;BME280;51077;42.716;23.344;2022-12-18T05:54:47;96481.53;;;7.24;60.14
64668;BME280;51077;42.716;23.344;2022-12-18T05:57:13;96477.28;;;7.23;59.96
64668;BME280;51077;42.716;23.344;2022-12-18T05:59:38;96477.28;;;7.23;59.87
64668;BME280;51077;42.716;23.344;2022-12-18T06:02:03;96485.94;;;7.22;59.80
64668;BME280;51077;42.716;23.344;2022-12-18T06:04:29;96492.59;;;7.21;59.51
64668;BME280;51077;42.716;23.344;2022-12-18T06:06:54;96497.31;;;7.20;59.63
64668;BME280;51077;42.716;23.344;2022-12-18T06:09:20;96487.63;;;7.19;59.69
64668;BME280;51077;42.716;23.344;2022-12-18T06:11:45;96488.84;;;7.18;59.67
64668;BME280;51077;42.716;23.344;2022-12-18T06:14:10;96493.84;;;7.20;59.87
64668;BME280;51077;42.716;23.344;2022-12-18T06:16:36;96491.84;;;7.20;59.74
64668;BME280;51077;42.716;23.344;2022-12-18T06:19:03;96496.09;;;7.21;59.63
64668;BME280;51077;42.716;23.344;2022-12-18T06:21:29;96492.59;;;7.21;59.73
64668;BME280;51077;42.716;23.344;2022-12-18T06:23:55;96505.78;;;7.22;59.30
64668;BME280;51077;42.716;23.344;2022-12-18T06:26:21;96503.84;;;7.23;59.36
64668;BME280;51077;42.716;23.344;2022-12-18T06:28:47;96513.22;;;7.22;59.37
64668;BME280;51077;42.716;23.344;2022-12-18T06:31:12;96520.34;;;7.38;70.37
64668;BME280;51077;42.716;23.344;2022-12-18T06:33:38;96526.00;;;7.67;77.50
64668;BME280;51077;42.716;23.344;2022-12-18T06:36:05;96523.69;;;7.75;76.07
64668;BME280;51077;42.716;23.344;2022-12-18T06:38:32;96523.22;;;7.76;74.41
64668;BME280;51077;42.716;23.344;2022-12-18T06:40:58;96535.06;;;7.73;73.01
64668;BME280;51077;42.716;23.344;2022-12-18T06:43:23;96536.47;;;7.69;71.40
64668;BME280;51077;42.716;23.344;2022-12-18T06:45:49;96539.06;;;7.63;69.90
64668;BME280;51077;42.716;23.344;2022-12-18T06:48:18;96537.25;;;7.60;68.78
64668;BME280;51077;42.716;23.344;2022-12-18T06:50:45;96539.69;;;7.58;68.12
64668;BME280;51077;42.716;23.344;2022-12-18T06:53:10;96541.84;;;7.54;66.83
64668;BME280;51077;42.716;23.344;2022-12-18T06:55:36;96542.75;;;7.51;65.88
64668;BME280;51077;42.716;23.344;2022-12-18T06:58:01;96542.91;;;7.47;64.47
64668;BME280;51077;42.716;23.344;2022-12-18T07:00:29;96546.88;;;7.46;64.09
64668;BME280;51077;42.716;23.344;2022-12-18T07:02:55;96555.06;;;7.46;63.84
64668;BME280;51077;42.716;23.344;2022-12-18T07:05:20;96555.81;;;7.47;63.27
64668;BME280;51077;42.716;23.344;2022-12-18T07:07:46;96548.38;;;7.47;62.99
64668;BME280;51077;42.716;23.344;2022-12-18T07:10:11;96553.41;;;7.49;62.58
64668;BME280;51077;42.716;23.344;2022-12-18T07:12:36;96558.22;;;7.54;62.25
64668;BME280;51077;42.716;23.344;2022-12-18T07:15:03;96555.50;;;7.54;61.81
64668;BME280;51077;42.716;23.344;2022-12-18T07:17:28;96557.75;;;7.55;61.42
64668;BME280;51077;42.716;23.344;2022-12-18T07:19:54;96565.47;;;7.57;60.83
64668;BME280;51077;42.716;23.344;2022-12-18T07:22:20;96569.00;;;7.58;60.75
64668;BME280;51077;42.716;23.344;2022-12-18T07:24:45;96565.47;;;7.57;60.36
64668;BME280;51077;42.716;23.344;2022-12-18T07:27:11;96558.06;;;7.58;60.35
64668;BME280;51077;42.716;23.344;2022-12-18T07:29:36;96565.97;;;7.55;59.76
64668;BME280;51077;42.716;23.344;2022-12-18T07:32:01;96579.63;;;7.55;59.41
64668;BME280;51077;42.716;23.344;2022-12-18T07:34:27;96581.59;;;7.55;59.19
64668;BME280;51077;42.716;23.344;2022-12-18T07:36:52;96574.63;;;7.54;59.16
64668;BME280;51077;42.716;23.344;2022-12-18T07:39:18;96579.34;;;7.53;59.28
64668;BME280;51077;42.716;23.344;2022-12-18T07:41:43;96579.03;;;7.51;59.17
64668;BME280;51077;42.716;23.344;2022-12-18T07:44:29;96587.97;;;7.52;58.93
64668;BME280;51077;42.716;23.344;2022-12-18T07:46:54;96584.00;;;7.53;58.91
64668;BME280;51077;42.716;23.344;2022-12-18T07:49:19;96585.56;;;7.54;58.49
64668;BME280;51077;42.716;23.344;2022-12-18T07:51:45;96592.06;;;7.56;58.41
64668;BME280;51077;42.716;23.344;2022-12-18T07:54:14;96586.91;;;7.59;58.59
64668;BME280;51077;42.716;23.344;2022-12-18T07:56:39;96596.13;;;7.61;58.70
64668;BME280;51077;42.716;23.344;2022-12-18T07:59:05;96597.69;;;7.62;58.47
64668;BME280;51077;42.716;23.344;2022-12-18T08:01:31;96600.69;;;7.64;58.37
64668;BME280;51077;42.716;23.344;2022-12-18T08:03:57;96606.47;;;7.66;58.47
64668;BME280;51077;42.716;23.344;2022-12-18T08:06:23;96604.50;;;7.67;58.32
64668;BME280;51077;42.716;23.344;2022-12-18T08:08:48;96612.97;;;7.69;57.83
64668;BME280;51077;42.716;23.344;2022-12-18T08:11:14;96607.50;;;7.69;57.91
64668;BME280;51077;42.716;23.344;2022-12-18T08:13:39;96617.69;;;7.68;58.10
64668;BME280;51077;42.716;23.344;2022-12-18T08:16:07;96621.63;;;7.67;57.86
64668;BME280;51077;42.716;23.344;2022-12-18T08:18:34;96629.53;;;7.65;57.97
64668;BME280;51077;42.716;23.344;2022-12-18T08:21:14;96637.44;;;7.63;57.73
64668;BME280;51077;42.716;23.344;2022-12-18T08:23:40;96640.59;;;7.62;58.16
64668;BME280;51077;42.716;23.344;2022-12-18T08:26:05;96640.94;;;7.64;57.90
64668;BME280;51077;42.716;23.344;2022-12-18T08:28:31;96642.91;;;7.63;57.92
64668;BME280;51077;42.716;23.344;2022-12-18T08:30:57;96642.91;;;7.63;57.58
64668;BME280;51077;42.716;23.344;2022-12-18T08:33:23;96651.84;;;7.64;57.95
64668;BME280;51077;42.716;23.344;2022-12-18T08:35:48;96645.91;;;7.65;57.57
64668;BME280;51077;42.716;23.344;2022-12-18T08:38:14;96642.91;;;7.63;57.63
64668;BME280;51077;42.716;23.344;2022-12-18T08:40:39;96647.91;;;7.65;57.16
64668;BME280;51077;42.716;23.344;2022-12-18T08:43:04;96647.00;;;7.68;57.40
64668;BME280;51077;42.716;23.344;2022-12-18T08:45:49;96642.75;;;7.67;57.02
64668;BME280;51077;42.716;23.344;2022-12-18T08:48:14;96648.97;;;7.67;57.20
64668;BME280;51077;42.716;23.344;2022-12-18T08:50:40;96655.47;;;7.70;57.14
64668;BME280;51077;42.716;23.344;2022-12-18T08:53:06;96657.31;;;7.73;56.85
64668;BME280;51077;42.716;23.344;2022-12-18T08:55:31;96664.59;;;7.76;56.64
64668;BME280;51077;42.716;23.344;2022-12-18T08:57:57;96657.91;;;7.77;56.27
64668;BME280;51077;42.716;23.344;2022-12-18T09:00:22;96655.16;;;7.77;56.33
64668;BME280;51077;42.716;23.344;2022-12-18T09:02:48;96660.91;;;7.79;56.24
64668;BME280;51077;42.716;23.344;2022-12-18T09:05:13;96651.06;;;7.81;56.17
64668;BME280;51077;42.716;23.344;2022-12-18T09:07:39;96651.38;;;7.84;56.08
64668;BME280;51077;42.716;23.344;2022-12-18T09:10:05;96651.66;;;7.86;55.95
64668;BME280;51077;42.716;23.344;2022-12-18T09:12:30;96655.13;;;7.86;55.79
64668;BME280;51077;42.716;23.344;2022-12-18T09:14:56;96657.41;;;7.88;55.79
64668;BME280;51077;42.716;23.344;2022-12-18T09:17:22;96654.22;;;7.89;55.29
64668;BME280;51077;42.716;23.344;2022-12-18T09:19:47;96651.50;;;7.89;55.82
64668;BME280;51077;42.716;23.344;2022-12-18T09:22:13;96661.50;;;7.92;55.70
64668;BME280;51077;42.716;23.344;2022-12-18T09:24:38;96661.06;;;7.94;55.35
64668;BME280;51077;42.716;23.344;2022-12-18T09:27:03;96650.88;;;7.94;55.00
64668;BME280;51077;42.716;23.344;2022-12-18T09:29:29;96653.88;;;7.96;54.94
64668;BME280;51077;42.716;23.344;2022-12-18T09:31:54;96643.56;;;8.00;54.83
64668;BME280;51077;42.716;23.344;2022-12-18T09:34:20;96653.56;;;8.03;54.82
64668;BME280;51077;42.716;23.344;2022-12-18T09:36:47;96655.84;;;8.05;54.81
64668;BME280;51077;42.716;23.344;2022-12-18T09:39:12;96655.84;;;8.05;54.67
64668;BME280;51077;42.716;23.344;2022-12-18T09:41:51;96653.41;;;8.07;54.72
64668;BME280;51077;42.716;23.344;2022-12-18T09:44:22;96656.44;;;8.09;54.41
64668;BME280;51077;42.716;23.344;2022-12-18T09:47:11;96657.50;;;8.12;54.62
64668;BME280;51077;42.716;23.344;2022-12-18T09:49:44;96653.84;;;8.15;54.59
64668;BME280;51077;42.716;23.344;2022-12-18T09:57:47;96655.03;;;8.14;53.70
64668;BME280;51077;42.716;23.344;2022-12-18T10:00:25;96661.59;;;8.16;53.49
64668;BME280;51077;42.716;23.344;2022-12-18T10:03:01;96657.94;;;8.19;53.33
64668;BME280;51077;42.716;23.344;2022-12-18T10:08:30;96646.47;;;8.30;53.33
64668;BME280;51077;42.716;23.344;2022-12-18T10:11:09;96661.50;;;8.35;53.60
64668;BME280;51077;42.716;23.344;2022-12-18T10:13:44;96666.84;;;8.38;53.33
64668;BME280;51077;42.716;23.344;2022-12-18T10:16:19;96647.53;;;8.42;53.01
64668;BME280;51077;42.716;23.344;2022-12-18T10:21:59;96649.16;;;8.48;53.16
64668;BME280;51077;42.716;23.344;2022-12-18T10:24:59;96658.25;;;8.54;52.97
64668;BME280;51077;42.716;23.344;2022-12-18T10:27:27;96664.31;;;8.59;52.64
64668;BME280;51077;42.716;23.344;2022-12-18T10:29:54;96664.16;;;8.62;52.45
64668;BME280;51077;42.716;23.344;2022-12-18T10:32:23;96654.53;;;8.67;52.61
64668;BME280;51077;42.716;23.344;2022-12-18T10:34:51;96659.06;;;8.70;52.67
64668;BME280;51077;42.716;23.344;2022-12-18T10:37:19;96665.88;;;8.74;52.34
64668;BME280;51077;42.716;23.344;2022-12-18T10:40:13;96655.53;;;8.78;52.39
64668;BME280;51077;42.716;23.344;2022-12-18T10:42:39;96648.06;;;8.79;52.28
64668;BME280;51077;42.716;23.344;2022-12-18T10:45:15;96653.38;;;8.82;52.42
64668;BME280;51077;42.716;23.344;2022-12-18T10:47:46;96649.41;;;8.84;52.05
64668;BME280;51077;42.716;23.344;2022-12-18T10:50:30;96650.94;;;8.85;52.14
64668;BME280;51077;42.716;23.344;2022-12-18T10:53:02;96648.97;;;8.85;52.23
64668;BME280;51077;42.716;23.344;2022-12-18T10:55:34;96655.94;;;8.86;51.93
64668;BME280;51077;42.716;23.344;2022-12-18T10:58:18;96651.22;;;8.87;52.00
64668;BME280;51077;42.716;23.344;2022-12-18T11:01:06;96647.25;;;8.88;52.00
64668;BME280;51077;42.716;23.344;2022-12-18T11:03:40;96651.97;;;8.87;52.22
64668;BME280;51077;42.716;23.344;2022-12-18T11:08:34;96648.78;;;8.89;52.04
64668;BME280;51077;42.716;23.344;2022-12-18T11:11:00;96661.72;;;8.88;51.98
64668;BME280;51077;42.716;23.344;2022-12-18T11:13:28;96657.44;;;8.87;52.14
64668;BME280;51077;42.716;23.344;2022-12-18T11:15:54;96655.47;;;8.88;52.02
64668;BME280;51077;42.716;23.344;2022-12-18T11:18:34;96654.25;;;8.89;52.29
64668;BME280;51077;42.716;23.344;2022-12-18T11:23:33;96655.94;;;8.86;52.11
64668;BME280;51077;42.716;23.344;2022-12-18T11:26:01;96659.91;;;8.85;51.90
64668;BME280;51077;42.716;23.344;2022-12-18T11:28:35;96661.13;;;8.84;51.96
64668;BME280;51077;42.716;23.344;2022-12-18T11:31:23;96660.81;;;8.82;51.75
64668;BME280;51077;42.716;23.344;2022-12-18T11:34:17;96659.50;;;8.77;51.62
64668;BME280;51077;42.716;23.344;2022-12-18T11:36:48;96652.97;;;8.75;51.30
64668;BME280;51077;42.716;23.344;2022-12-18T11:44:55;96656.66;;;8.72;51.70
64668;BME280;51077;42.716;23.344;2022-12-18T11:47:43;96665.31;;;8.70;51.55
64668;BME280;51077;42.716;23.344;2022-12-18T11:50:21;96666.25;;;8.67;51.70
64668;BME280;51077;42.716;23.344;2022-12-18T11:52:49;96660.19;;;8.63;51.68
64668;BME280;51077;42.716;23.344;2022-12-18T11:55:20;96663.38;;;8.62;51.79
64668;BME280;51077;42.716;23.344;2022-12-18T11:58:27;96661.59;;;8.59;51.65
64668;BME280;51077;42.716;23.344;2022-12-18T12:04:02;96655.69;;;8.51;51.52
64668;BME280;51077;42.716;23.344;2022-12-18T12:06:46;96654.63;;;8.48;51.33
64668;BME280;51077;42.716;23.344;2022-12-18T12:09:35;96659.81;;;8.46;51.76
64668;BME280;51077;42.716;23.344;2022-12-18T12:17:45;96656.78;;;8.44;51.70
64668;BME280;51077;42.716;23.344;2022-12-18T12:23:14;96663.03;;;8.45;51.65
64668;BME280;51077;42.716;23.344;2022-12-18T12:26:07;96661.78;;;8.46;51.84
64668;BME280;51077;42.716;23.344;2022-12-18T12:39:06;96672.75;;;8.46;51.76
64668;BME280;51077;42.716;23.344;2022-12-18T12:41:33;96674.25;;;8.47;51.58
64668;BME280;51077;42.716;23.344;2022-12-18T12:44:25;96665.28;;;8.46;51.44
64668;BME280;51077;42.716;23.344;2022-12-18T12:46:56;96661.31;;;8.47;51.83
64668;BME280;51077;42.716;23.344;2022-12-18T12:49:26;96660.56;;;8.47;51.58
64668;BME280;51077;42.716;23.344;2022-12-18T12:51:58;96661.03;;;8.45;51.35
64668;BME280;51077;42.716;23.344;2022-12-18T12:54:26;96663.03;;;8.45;51.68
64668;BME280;51077;42.716;23.344;2022-12-18T12:57:13;96667.72;;;8.44;51.55
64668;BME280;51077;42.716;23.344;2022-12-18T12:59:57;96667.44;;;8.42;51.64
64668;BME280;51077;42.716;23.344;2022-12-18T13:03:30;96666.38;;;8.40;51.63
64668;BME280;51077;42.716;23.344;2022-12-18T13:05:50;96679.75;;;8.38;51.55
64668;BME280;51077;42.716;23.344;2022-12-18T13:08:30;96676.28;;;8.37;51.49
64668;BME280;51077;42.716;23.344;2022-12-18T13:10:57;96686.13;;;8.35;51.52
64668;BME280;51077;42.716;23.344;2022-12-18T13:14:00;96681.59;;;8.31;51.08
64668;BME280;51077;42.716;23.344;2022-12-18T13:16:26;96692.22;;;8.29;51.35
64668;BME280;51077;42.716;23.344;2022-12-18T13:18:56;96694.69;;;8.27;51.08
64668;BME280;51077;42.716;23.344;2022-12-18T13:21:32;96704.56;;;8.25;51.00
64668;BME280;51077;42.716;23.344;2022-12-18T13:24:25;96703.47;;;8.22;51.24
64668;BME280;51077;42.716;23.344;2022-12-18T13:26:51;96702.44;;;8.20;51.23
64668;BME280;51077;42.716;23.344;2022-12-18T13:29:40;96700.94;;;8.19;51.44
64668;BME280;51077;42.716;23.344;2022-12-18T13:32:20;96710.34;;;8.18;51.20
64668;BME280;51077;42.716;23.344;2022-12-18T13:34:46;96695.44;;;8.28;56.52
64668;BME280;51077;42.716;23.344;2022-12-18T13:39:57;96718.66;;;8.42;60.57
64668;BME280;51077;42.716;23.344;2022-12-18T13:45:35;96707.56;;;8.45;60.91
64668;BME280;51077;42.716;23.344;2022-12-18T13:48:03;96711.50;;;8.44;60.85
64668;BME280;51077;42.716;23.344;2022-12-18T13:50:29;96716.22;;;8.44;61.01
64668;BME280;51077;42.716;23.344;2022-12-18T13:52:54;96723.66;;;8.43;61.19
64668;BME280;51077;42.716;23.344;2022-12-18T13:55:20;96732.63;;;8.44;60.55
64668;BME280;51077;42.716;23.344;2022-12-18T13:57:47;96736.13;;;8.44;60.88
64668;BME280;51077;42.716;23.344;2022-12-18T14:02:50;96729.88;;;8.44;60.60
64668;BME280;51077;42.716;23.344;2022-12-18T14:07:55;96736.59;;;8.43;60.31
64668;BME280;51077;42.716;23.344;2022-12-18T14:10:24;96741.31;;;8.42;60.26
64668;BME280;51077;42.716;23.344;2022-12-18T14:12:50;96747.06;;;8.44;60.17
64668;BME280;51077;42.716;23.344;2022-12-18T14:15:29;96736.91;;;8.45;60.06
64668;BME280;51077;42.716;23.344;2022-12-18T14:18:02;96743.13;;;8.45;59.86
64668;BME280;51077;42.716;23.344;2022-12-18T14:20:31;96740.38;;;8.45;59.77
64668;BME280;51077;42.716;23.344;2022-12-18T14:22:58;96744.31;;;8.44;59.85
64668;BME280;51077;42.716;23.344;2022-12-18T14:25:27;96751.03;;;8.43;59.70
64668;BME280;51077;42.716;23.344;2022-12-18T14:28:13;96751.03;;;8.43;58.99
64668;BME280;51077;42.716;23.344;2022-12-18T14:30:44;96750.25;;;8.43;59.45
64668;BME280;51077;42.716;23.344;2022-12-18T14:33:21;96748.00;;;8.41;59.57
64668;BME280;51077;42.716;23.344;2022-12-18T14:36:02;96755.91;;;8.39;59.29
64668;BME280;51077;42.716;23.344;2022-12-18T14:38:35;96766.09;;;8.39;58.91
64668;BME280;51077;42.716;23.344;2022-12-18T14:41:12;96756.81;;;8.36;58.59
64668;BME280;51077;42.716;23.344;2022-12-18T14:43:40;96755.75;;;8.34;58.63